Accueil
METAR-TAF:

METAR-TAF

Aéroports :

Aéroport international Esenboğa

Ankara Esenboğa, Turquie

latitude: 40-07N, longitude: 032-59E, altitude: 953 m

Observation

Le bulletin a été fait il y a 33 minutes, à 17:50 UTC
Vent 11 kt de est/nord-est
Température 27°C
Humidité 30%
Pression 1015 hPa
Visibilité 10 km ou plus
pas de nuages en-dessous de 1500 mètres et pas de cumulonimbus.

METAR: LTAC 201750Z 06011KT CAVOK 27/08 Q1015 NOSIG RMK RWY21L 05010KT RWY03L 06010KT 030V090 RWY21R 04010KT 010V070

Heure: 21:23 (18:23 UTC)

Prévision

Le bulletin a été fait il y a 1 heure et 43 minutes, à 16:40 UTC
Prévision valable du 20 à 18 UTC au 21 à 18 UTC
Vent 12 kt de nord-est
Visibilité 10 km ou plus
Nuages épars à une hauteur de 4000 ft
Evoluant progressivement
du 20 à 18 UTC au 20 à 20 UTC
Visibilité 10 km ou plus
pas de nuages en-dessous de 1500 mètres et pas de cumulonimbus.

TAF: LTAC 201640Z 2018/2118 04012KT 9999 SCT040 BECMG 2018/2020 CAVOK

Observations et prévisions météorologiques de plus de 4000 aéroports (messages METAR et TAF).

Les stations disponibles sont représentées par des disques jaunes et rouges sur la carte.

Passer la souris dessus pour voir le nom de la station.

Cliquer dessus pour voir les observations et prévisions météorologiques.

Pour changer de carte: cliquez sur les boutons verts avec une croix noire pour zoomer, sur le bouton vert avec un tiret pour effectuer un zoom arrière, ou sur les flèches vertes pour les cartes adjacentes.


METAR-TAF: